Terminal Aerodrome Forecast
Issued by NWS

Home | Current Version | Previous Version | Text Only | Print | Product List | Glossary On
Versions: 1 2 3 4 5 6 7 8 9 10 11 12 13 14 15 16 17 18 19 20 21 22 23 24 25 26 27
000
FTAK31 PANC 250044 AAA
TAFAGK
TAF AMD
PAGK 250044Z 2501/2524 VRB03KT 3SM -SN BR SCT008 OVC035
      TEMPO 2501/2504 1/2SM -SN FZFG BKN008 BKN014
     FM250400 VRB03KT 4SM -SN OVC015
     FM252100 VRB03KT 6SM -SHSN BKN028=

USA.gov is the U.S. government's official web portal to all federal, state and local government web resources and services.